Time;durP1;ratioP1;P1;durP2;ratioP2;P2;SDS_P1;SDS_P2;PMS_P1;PMS_P2;Temp;Humidity;BMP_temperature;BMP_pressure;BME280_temperature;BME280_humidity;BME280_pressure;Samples;Min_cycle;Max_cycle;Signal;HPM_P1;HPM_P2
2022/12/05 00:01:33;;;;;;;1.00;0.65;;;;;;;22.15;53.30;100409.81;7396577;19;20018;-87
2022/12/05 00:04:03;;;;;;;1.10;1.02;;;;;;;21.94;53.50;100418.13;7394058;19;20057;-86
2022/12/05 00:06:30;;;;;;;1.85;0.77;;;;;;;21.67;53.78;100405.16;7393860;19;20018;-86
2022/12/05 00:08:57;;;;;;;1.67;1.13;;;;;;;21.51;54.68;100409.00;7395659;19;20485;-86
2022/12/05 00:11:26;;;;;;;1.30;0.38;;;;;;;22.13;53.10;100401.84;7394351;19;20022;-85
2022/12/05 00:13:53;;;;;;;4.30;0.90;;;;;;;21.75;53.95;100400.38;7394409;19;20024;-85
2022/12/05 00:16:22;;;;;;;6.03;1.85;;;;;;;17.30;62.10;100422.81;7394846;19;20018;-85
2022/12/05 00:18:48;;;;;;;0.95;0.35;;;;;;;20.24;56.71;100417.75;7388785;19;20022;-85
2022/12/05 00:21:18;;;;;;;4.03;0.65;;;;;;;21.68;55.42;100415.94;7390550;19;20011;-86
2022/12/05 00:23:44;;;;;;;1.08;0.28;;;;;;;21.84;54.35;100414.97;7393206;19;20014;-86
2022/12/05 00:26:11;;;;;;;2.88;0.68;;;;;;;21.84;54.34;100420.63;7390923;19;20022;-86
2022/12/05 00:28:38;;;;;;;1.98;0.85;;;;;;;21.75;54.52;100418.16;7391941;19;20015;-86
2022/12/05 00:31:10;;;;;;;2.22;0.50;;;;;;;21.77;55.03;100415.56;7389141;19;20023;-86
2022/12/05 00:33:36;;;;;;;6.47;1.50;;;;;;;22.11;54.20;100404.44;7391859;19;20017;-85
2022/12/05 00:36:09;;;;;;;0.82;0.80;;;;;;;22.17;53.95;100413.63;7391512;19;20027;-85
2022/12/05 00:38:36;;;;;;;0.57;0.57;;;;;;;21.68;54.46;100407.44;7393840;19;20070;-85
2022/12/05 00:41:04;;;;;;;4.05;0.93;;;;;;;21.71;54.49;100406.38;7392043;19;20021;-86
2022/12/05 00:43:31;;;;;;;4.95;0.85;;;;;;;21.35;55.14;100412.88;7393718;19;20031;-84
2022/12/05 00:46:09;;;;;;;2.95;0.93;;;;;;;21.18;55.10;100418.00;7393379;19;20020;-86
2022/12/05 00:48:35;;;;;;;0.10;0.10;;;;;;;20.45;56.65;100418.06;7390413;19;20019;-86
2022/12/05 00:51:03;;;;;;;7.78;1.60;;;;;;;19.90;57.74;100413.69;7391797;19;20045;-86
2022/12/05 00:53:30;;;;;;;6.03;1.27;;;;;;;19.48;59.03;100419.88;7391105;19;20023;-85
2022/12/05 00:56:02;;;;;;;0.98;0.98;;;;;;;19.23;59.66;100418.22;7390640;19;20019;-86
2022/12/05 00:58:28;;;;;;;3.35;1.20;;;;;;;19.26;59.92;100429.25;7393799;19;20018;-86
2022/12/05 01:00:54;;;;;;;1.20;0.70;;;;;;;18.95;60.75;100421.16;7393558;19;20018;-86
2022/12/05 01:03:21;;;;;;;1.65;0.90;;;;;;;18.81;61.02;100425.09;7391690;19;20018;-85
2022/12/05 01:05:47;;;;;;;1.38;1.08;;;;;;;19.16;60.66;100425.19;7390360;19;20029;-86
2022/12/05 01:08:13;;;;;;;0.73;0.73;;;;;;;19.21;61.03;100427.19;7391935;19;20078;-86
2022/12/05 01:10:39;;;;;;;0.40;0.40;;;;;;;18.95;61.81;100432.47;7389436;19;20065;-86
2022/12/05 01:13:05;;;;;;;0.90;0.35;;;;;;;18.82;61.85;100420.97;7396171;19;20038;-86
2022/12/05 01:15:36;;;;;;;1.35;0.47;;;;;;;18.81;62.13;100417.41;7394046;19;20015;-86
2022/12/05 01:18:02;;;;;;;1.47;0.60;;;;;;;19.43;61.38;100427.09;7391927;19;20013;-86
2022/12/05 01:20:28;;;;;;;2.15;0.52;;;;;;;19.99;59.87;100427.47;7390192;19;20032;-85
2022/12/05 01:22:54;;;;;;;1.73;0.88;;;;;;;19.94;60.05;100424.69;7395444;19;20030;-86
2022/12/05 01:25:20;;;;;;;12.80;1.70;;;;;;;20.08;59.68;100417.88;7391260;19;20161;-86
2022/12/05 01:27:46;;;;;;;1.30;0.45;;;;;;;19.89;59.69;100422.66;7390447;19;20007;-86
2022/12/05 01:30:13;;;;;;;1.13;0.77;;;;;;;19.95;59.46;100426.97;7390147;19;20021;-86
2022/12/05 01:32:39;;;;;;;3.38;0.68;;;;;;;19.35;60.54;100414.84;7393628;19;20035;-85
2022/12/05 01:35:06;;;;;;;0.68;0.68;;;;;;;20.18;59.90;100421.91;7389643;19;20011;-86
2022/12/05 01:37:32;;;;;;;1.55;1.00;;;;;;;20.32;59.54;100418.72;7391276;19;20015;-85
2022/12/05 01:39:58;;;;;;;0.47;0.47;;;;;;;20.13;59.54;100436.88;7389986;19;20014;-86
2022/12/05 01:42:25;;;;;;;8.20;0.95;;;;;;;20.28;59.06;100431.59;7394086;19;20018;-85
2022/12/05 01:45:15;;;;;;;1.30;0.85;;;;;;;19.83;59.73;100434.03;7391652;19;20014;-86
2022/12/05 01:47:42;;;;;;;5.22;1.08;;;;;;;19.91;59.96;100442.69;7392937;19;20019;-86
2022/12/05 01:50:09;;;;;;;1.60;0.80;;;;;;;20.11;59.62;100439.44;7390444;19;20014;-85
2022/12/05 01:52:35;;;;;;;0.40;0.25;;;;;;;20.59;58.51;100448.03;7400403;19;20082;-86
2022/12/05 01:55:07;;;;;;;1.13;1.02;;;;;;;20.54;58.93;100433.91;7400021;19;20018;-86
2022/12/05 01:57:33;;;;;;;5.72;0.43;;;;;;;20.60;58.33;100432.56;7394723;19;20029;-86
2022/12/05 02:00:07;;;;;;;0.95;0.20;;;;;;;20.74;58.07;100434.22;7398605;19;20025;-87
2022/12/05 02:02:41;;;;;;;2.72;0.75;;;;;;;21.22;57.15;100443.94;7402671;19;20014;-87
2022/12/05 02:05:14;;;;;;;0.40;0.40;;;;;;;21.58;56.58;100436.72;7397351;19;20010;-88
2022/12/05 02:07:42;;;;;;;2.03;0.40;;;;;;;21.13;56.51;100443.03;7399748;19;20014;-84
2022/12/05 02:10:09;;;;;;;4.47;1.65;;;;;;;21.81;55.78;100437.91;7397739;19;20038;-85
2022/12/05 02:12:37;;;;;;;2.80;0.70;;;;;;;21.29;57.19;100429.19;7403533;19;20033;-85
2022/12/05 02:15:17;;;;;;;0.90;0.82;;;;;;;22.25;54.56;100430.75;7397011;19;20018;-85
2022/12/05 02:17:52;;;;;;;0.73;0.65;;;;;;;22.25;54.19;100428.69;7398158;19;20354;-85
2022/12/05 02:21:06;;;;;;;0.75;0.63;;;;;;;21.78;54.85;100439.00;7398166;19;20217;-85
2022/12/05 02:23:51;;;;;;;0.43;0.35;;;;;;;21.90;54.43;100440.38;7397826;19;20500;-85
2022/12/05 02:26:17;;;;;;;0.20;0.20;;;;;;;21.95;54.14;100439.53;7396900;19;20018;-84
2022/12/05 02:29:04;;;;;;;1.00;0.73;;;;;;;22.27;53.93;100434.59;7395480;19;20015;-85
2022/12/05 02:31:44;;;;;;;0.90;0.55;;;;;;;19.76;59.88;100445.13;7399832;19;20044;-85
2022/12/05 02:34:32;;;;;;;2.20;0.63;;;;;;;21.33;56.03;100446.63;7393251;19;20117;-85
2022/12/05 02:37:17;;;;;;;0.28;0.28;;;;;;;21.39;55.50;100455.81;7394909;19;20021;-85
2022/12/05 02:39:59;;;;;;;2.75;0.57;;;;;;;21.35;55.78;100447.63;7397546;19;20010;-85
2022/12/05 02:42:31;;;;;;;2.08;1.02;;;;;;;21.04;56.15;100440.56;7401070;19;20022;-85
2022/12/05 02:45:25;;;;;;;2.22;0.57;;;;;;;20.31;57.17;100441.88;7398346;19;20015;-86
2022/12/05 02:47:53;;;;;;;1.27;0.98;;;;;;;21.14;56.67;100438.13;7395935;19;20363;-86
2022/12/05 02:50:22;;;;;;;0.63;0.63;;;;;;;21.21;56.30;100446.00;7397419;19;20490;-85
2022/12/05 02:52:53;;;;;;;0.65;0.65;;;;;;;21.63;55.38;100438.72;7398864;19;20019;-86
2022/12/05 02:55:22;;;;;;;0.53;0.53;;;;;;;20.84;56.09;100446.69;7398113;19;20093;-86
2022/12/05 02:57:53;;;;;;;0.70;0.65;;;;;;;19.65;59.90;100446.75;7396793;19;20247;-86
2022/12/05 03:00:20;;;;;;;1.23;0.95;;;;;;;20.84;57.32;100449.53;7398137;19;20022;-85
2022/12/05 03:02:47;;;;;;;1.40;0.80;;;;;;;21.20;56.29;100453.00;7399835;19;20518;-85
2022/12/05 03:05:24;;;;;;;0.32;0.30;;;;;;;21.17;56.22;100458.94;7395194;19;20038;-86
2022/12/05 03:07:55;;;;;;;0.63;0.63;;;;;;;21.62;55.42;100451.34;7394692;19;20021;-85
2022/12/05 03:10:25;;;;;;;1.73;0.63;;;;;;;17.69;60.27;100460.31;7394825;19;20687;-85
2022/12/05 03:13:06;;;;;;;2.03;0.47;;;;;;;21.60;56.12;100451.91;7397926;19;20090;-85
2022/12/05 03:15:38;;;;;;;1.70;0.70;;;;;;;20.56;56.41;100463.22;7393497;19;20026;-85
2022/12/05 03:18:08;;;;;;;5.28;0.52;;;;;;;22.04;54.73;100450.47;7394617;19;20025;-84
2022/12/05 03:20:44;;;;;;;0.50;0.50;;;;;;;21.75;54.67;100457.88;7394463;19;20019;-84
2022/12/05 03:23:17;;;;;;;6.60;1.83;;;;;;;21.12;56.56;100461.31;7394966;19;20022;-83
2022/12/05 03:25:53;;;;;;;1.63;0.95;;;;;;;22.32;53.70;100459.28;7391140;19;20023;-84
2022/12/05 03:28:28;;;;;;;0.98;0.80;;;;;;;22.43;53.56;100453.41;7390461;19;20355;-85
2022/12/05 03:31:00;;;;;;;1.05;0.98;;;;;;;21.35;53.89;100458.19;7394864;19;20019;-85
2022/12/05 03:33:34;;;;;;;0.43;0.43;;;;;;;23.74;51.66;100456.13;7394955;19;20018;-84
2022/12/05 03:36:00;;;;;;;0.98;0.45;;;;;;;23.73;51.33;100451.78;7394292;19;20018;-85
2022/12/05 03:38:52;;;;;;;2.17;1.48;;;;;;;23.30;51.16;100454.28;7394809;19;20082;-84
2022/12/05 03:41:47;;;;;;;2.65;1.05;;;;;;;23.28;51.14;100459.75;7394507;19;20021;-85
2022/12/05 03:44:23;;;;;;;2.85;0.95;;;;;;;22.44;51.89;100466.28;7393770;19;20019;-84
2022/12/05 03:46:59;;;;;;;3.03;0.30;;;;;;;22.46;52.11;100460.81;7391742;19;20018;-85
2022/12/05 03:49:46;;;;;;;3.13;1.33;;;;;;;22.87;51.55;100457.47;7396738;19;20359;-85
2022/12/05 03:52:24;;;;;;;3.85;0.57;;;;;;;22.63;51.77;100469.81;7398665;19;20022;-84
2022/12/05 03:54:56;;;;;;;0.60;0.55;;;;;;;23.00;51.41;100479.47;7390007;19;20028;-85
2022/12/05 03:57:37;;;;;;;2.55;0.63;;;;;;;22.97;50.94;100477.72;7386184;19;20022;-85
2022/12/05 04:00:05;;;;;;;;;;;;;;;23.19;50.48;100465.88;7394753;19;20500;-87
2022/12/05 04:02:46;;;;;;;1.15;0.38;;;;;;;23.24;50.16;100467.81;7397571;19;19918;-84
2022/12/05 04:05:19;;;;;;;1.90;0.88;;;;;;;23.07;50.21;100475.94;7393068;19;20090;-85
2022/12/05 04:07:51;;;;;;;0.65;0.63;;;;;;;23.02;50.25;100476.84;7396059;19;20009;-84
2022/12/05 04:10:23;;;;;;;2.85;0.80;;;;;;;23.27;49.68;100486.63;7393521;19;20015;-85
2022/12/05 04:12:53;;;;;;;6.25;1.15;;;;;;;23.05;49.90;100484.25;7399418;19;20026;-84
2022/12/05 04:15:25;;;;;;;3.45;0.95;;;;;;;23.29;49.26;100481.16;7395765;19;20078;-85
2022/12/05 04:17:55;;;;;;;5.35;1.27;;;;;;;23.61;48.90;100478.16;7395395;19;20018;-85
2022/12/05 04:23:25;;;;;;;2.72;0.73;;;;;;;22.53;51.04;100485.72;7393796;19;20019;-85
2022/12/05 04:26:17;;;;;;;0.63;0.63;;;;;;;22.75;50.49;100489.50;7392701;19;20014;-84
2022/12/05 04:29:03;;;;;;;3.10;0.90;;;;;;;22.78;50.86;100494.88;7392644;19;20034;-85
2022/12/05 04:31:38;;;;;;;1.00;0.95;;;;;;;22.78;50.40;100497.72;7393062;19;20030;-84
2022/12/05 04:34:09;;;;;;;3.25;0.85;;;;;;;22.69;50.50;100491.69;7393258;19;20025;-87
2022/12/05 04:36:41;;;;;;;0.77;0.77;;;;;;;22.52;50.55;100489.13;7393260;19;20014;-85
2022/12/05 04:39:12;;;;;;;6.68;1.05;;;;;;;22.34;50.63;100490.72;7393823;19;20018;-85
2022/12/05 04:41:45;;;;;;;0.40;0.30;;;;;;;22.33;50.24;100497.69;7393138;19;20022;-84
2022/12/05 04:44:16;;;;;;;0.57;0.55;;;;;;;19.86;53.62;100508.53;7394005;19;20030;-85
2022/12/05 04:46:44;;;;;;;1.73;0.60;;;;;;;21.92;51.01;100505.84;7393164;19;20035;-84
2022/12/05 04:49:17;;;;;;;1.08;0.98;;;;;;;22.37;49.98;100511.59;7392272;19;20041;-87
2022/12/05 04:51:46;;;;;;;1.10;0.55;;;;;;;22.65;49.67;100509.06;7394975;19;20010;-88
2022/12/05 04:54:18;;;;;;;0.90;0.30;;;;;;;22.63;49.58;100508.06;7395507;19;20026;-87
2022/12/05 04:56:46;;;;;;;1.30;1.00;;;;;;;22.66;49.01;100504.13;7396186;19;20017;-87
2022/12/05 04:59:13;;;;;;;1.08;0.45;;;;;;;21.76;50.10;100529.53;7397210;19;20763;-87
2022/12/05 05:01:46;;;;;;;0.20;0.10;;;;;;;22.26;49.66;100514.59;7394316;19;20690;-86
2022/12/05 05:04:19;;;;;;;1.92;0.75;;;;;;;22.48;49.43;100514.97;7392235;19;20071;-87
2022/12/05 05:06:46;;;;;;;2.17;0.30;;;;;;;22.65;49.12;100514.72;7393077;19;20014;-88
2022/12/05 05:09:12;;;;;;;1.95;0.52;;;;;;;22.63;48.48;100513.75;7392632;19;20018;-87
2022/12/05 05:11:38;;;;;;;1.95;0.85;;;;;;;23.09;48.29;100518.78;7394013;19;20014;-88
2022/12/05 05:14:05;;;;;;;0.43;0.38;;;;;;;23.44;47.68;100515.50;7393965;19;20031;-88
2022/12/05 05:16:37;;;;;;;0.35;0.35;;;;;;;23.35;47.52;100519.56;7394113;19;20468;-87
2022/12/05 05:19:04;;;;;;;1.00;0.52;;;;;;;23.39;47.20;100521.31;7393625;19;20488;-87
2022/12/05 05:21:32;;;;;;;3.47;0.90;;;;;;;22.56;48.12;100524.41;7393155;19;20011;-87
2022/12/05 05:23:59;;;;;;;4.57;1.30;;;;;;;22.50;47.93;100523.72;7393270;19;20345;-88
2022/12/05 05:26:26;;;;;;;1.40;1.30;;;;;;;22.32;48.47;100526.63;7392147;19;20372;-87
2022/12/05 05:28:53;;;;;;;0.55;0.55;;;;;;;22.61;47.93;100522.78;7398823;19;20014;-87
2022/12/05 05:31:20;;;;;;;0.70;0.70;;;;;;;22.54;47.91;100526.25;7397301;19;20019;-87
2022/12/05 05:33:53;;;;;;;1.77;0.43;;;;;;;22.16;48.72;100519.13;7397427;19;20019;-88
2022/12/05 05:36:21;;;;;;;0.50;0.30;;;;;;;23.06;47.80;100522.72;7398394;19;20021;-88
2022/12/05 05:38:50;;;;;;;0.43;0.20;;;;;;;22.96;48.04;100527.28;7400407;19;20018;-87
2022/12/05 05:41:34;;;;;;;4.38;2.08;;;;;;;23.30;47.64;100511.13;7401359;19;20588;-88
2022/12/05 05:44:00;;;;;;;1.02;0.70;;;;;;;23.56;47.00;100521.72;7400861;19;20014;-87
2022/12/05 05:46:29;;;;;;;3.30;1.38;;;;;;;23.45;47.03;100516.28;7399350;19;20019;-86
2022/12/05 05:48:56;;;;;;;0.17;0.17;;;;;;;23.55;47.10;100520.97;7397435;19;20026;-87
2022/12/05 05:51:26;;;;;;;4.88;1.65;;;;;;;23.63;46.48;100527.50;7397327;19;20481;-87
2022/12/05 05:53:53;;;;;;;3.42;0.47;;;;;;;23.69;46.20;100536.66;7396325;19;20019;-88
2022/12/05 05:56:20;;;;;;;0.63;0.63;;;;;;;23.52;46.62;100532.69;7397855;19;20019;-87
2022/12/05 05:58:47;;;;;;;1.20;0.40;;;;;;;23.78;46.18;100544.75;7400287;19;20018;-87
2022/12/05 06:01:16;;;;;;;0.28;0.28;;;;;;;23.92;45.69;100546.25;7400802;19;20038;-87
2022/12/05 06:03:42;;;;;;;2.17;0.82;;;;;;;24.13;45.64;100545.56;7399357;19;20082;-87
2022/12/05 06:06:11;;;;;;;0.40;0.40;;;;;;;24.13;45.74;100551.25;7395125;19;20018;-86
2022/12/05 06:08:39;;;;;;;0.90;0.57;;;;;;;24.41;44.97;100554.16;7396240;19;20025;-86
2022/12/05 06:11:07;;;;;;;0.20;0.20;;;;;;;24.38;44.30;100549.59;7394230;19;20537;-87
2022/12/05 06:13:34;;;;;;;0.30;0.25;;;;;;;24.45;44.47;100555.34;7394522;19;20095;-88
2022/12/05 06:16:00;;;;;;;0.43;0.22;;;;;;;15.03;78.49;100576.19;7399479;19;20025;-87
2022/12/05 06:18:27;;;;;;;2.28;0.55;;;;;;;19.87;57.33;100560.94;7397876;19;20015;-87
2022/12/05 06:20:54;;;;;;;1.13;0.15;;;;;;;20.25;55.10;100565.59;7398706;19;20007;-86
2022/12/05 06:23:21;;;;;;;1.20;0.82;;;;;;;20.40;54.38;100557.50;7397821;19;20015;-87
2022/12/05 06:25:52;;;;;;;0.40;0.40;;;;;;;20.09;54.25;100566.47;7396798;19;20018;-86
2022/12/05 06:28:19;;;;;;;;;;;;;;;19.71;55.15;100562.56;7395297;19;20011;-87
2022/12/05 06:30:45;;;;;;;0.30;0.13;;;;;;;19.76;54.49;100555.34;7395582;19;19982;-86
2022/12/05 06:33:12;;;;;;;0.45;0.45;;;;;;;19.82;53.96;100558.91;7394178;19;20113;-87
2022/12/05 06:35:39;;;;;;;0.17;0.17;;;;;;;19.35;54.56;100561.72;7395012;19;20010;-88
2022/12/05 06:38:06;;;;;;;0.50;0.43;;;;;;;13.37;69.40;100570.47;7398332;19;20031;-87
2022/12/05 06:40:33;;;;;;;0.65;0.65;;;;;;;18.64;58.11;100568.25;7398308;19;20015;-87
2022/12/05 06:42:59;;;;;;;4.07;0.85;;;;;;;19.71;56.37;100559.00;7403179;19;20010;-87
2022/12/05 06:45:25;;;;;;;1.27;0.70;;;;;;;19.03;57.17;100563.34;7399514;19;20015;-87
2022/12/05 06:47:51;;;;;;;2.22;0.20;;;;;;;19.55;55.81;100567.03;7394920;19;20039;-88
2022/12/05 06:50:18;;;;;;;0.77;0.70;;;;;;;21.17;52.86;100555.25;7395167;19;20006;-87
2022/12/05 06:52:44;;;;;;;4.20;1.20;;;;;;;21.74;51.39;100560.47;7398049;19;20708;-87
2022/12/05 06:55:10;;;;;;;1.13;0.45;;;;;;;21.70;50.66;100562.88;7394833;19;20026;-88
2022/12/05 06:57:36;;;;;;;0.30;0.10;;;;;;;22.06;49.97;100561.34;7394736;19;20011;-88
2022/12/05 07:02:50;;;;;;;1.15;0.68;;;;;;;21.60;50.01;100576.63;7402355;19;20031;-88
2022/12/05 07:05:16;;;;;;;7.22;0.50;;;;;;;21.65;50.08;100575.81;7397526;19;20546;-87
2022/12/05 07:07:43;;;;;;;0.77;0.65;;;;;;;21.87;49.35;100571.94;7397390;19;20034;-87
2022/12/05 07:10:09;;;;;;;0.10;0.10;;;;;;;21.75;49.67;100576.19;7396503;19;20456;-87
2022/12/05 07:12:35;;;;;;;0.60;0.55;;;;;;;22.14;49.08;100562.25;7398140;19;20031;-86
2022/12/05 07:15:01;;;;;;;0.20;0.10;;;;;;;21.67;48.96;100575.25;7396138;19;20035;-87
2022/12/05 07:17:27;;;;;;;0.77;0.47;;;;;;;21.93;48.83;100574.69;7399459;19;20031;-86
2022/12/05 07:19:53;;;;;;;2.67;0.50;;;;;;;21.10;50.04;100590.63;7397385;19;20336;-86
2022/12/05 07:22:21;;;;;;;0.20;0.20;;;;;;;20.76;50.15;100587.31;7399933;19;20021;-87
2022/12/05 07:24:50;;;;;;;0.73;0.30;;;;;;;20.12;51.62;100582.41;7395524;19;20337;-87
2022/12/05 07:27:16;;;;;;;0.20;0.20;;;;;;;21.00;50.07;100581.69;7395548;19;20015;-87
2022/12/05 07:29:42;;;;;;;0.30;0.30;;;;;;;21.24;50.01;100588.66;7396896;19;20555;-87
2022/12/05 07:32:08;;;;;;;0.10;0.10;;;;;;;21.55;49.12;100585.22;7399495;19;20362;-86
2022/12/05 07:34:34;;;;;;;0.17;0.17;;;;;;;20.09;50.85;100589.09;7393050;19;20029;-87
2022/12/05 07:37:01;;;;;;;8.07;0.75;;;;;;;19.98;51.91;100587.09;7387943;19;20133;-88
2022/12/05 07:39:27;;;;;;;1.95;0.55;;;;;;;20.21;52.11;100590.56;7392349;19;20015;-86
2022/12/05 07:41:53;;;;;;;0.82;0.40;;;;;;;20.48;51.58;100603.78;7399073;19;20019;-87
2022/12/05 07:44:19;;;;;;;1.25;0.40;;;;;;;20.77;51.08;100594.50;7395902;19;20017;-87
2022/12/05 07:46:45;;;;;;;0.73;0.38;;;;;;;20.74;51.41;100598.41;7394603;19;20015;-87
2022/12/05 07:49:11;;;;;;;2.30;0.60;;;;;;;20.71;51.52;100588.13;7393689;19;20069;-88
2022/12/05 07:51:37;;;;;;;0.55;0.22;;;;;;;20.68;51.54;100600.50;7396144;19;20378;-88
2022/12/05 07:54:05;;;;;;;0.75;0.60;;;;;;;20.98;51.14;100594.84;7396599;19;20022;-86
2022/12/05 07:56:31;;;;;;;0.55;0.40;;;;;;;17.79;56.61;100605.28;7393371;19;20351;-87
2022/12/05 07:58:57;;;;;;;3.25;1.02;;;;;;;20.89;52.26;100604.44;7395519;19;20018;-86
2022/12/05 08:01:25;;;;;;;1.85;0.90;;;;;;;21.11;51.70;100609.16;7395287;19;20015;-87
2022/12/05 08:03:54;;;;;;;2.47;1.27;;;;;;;20.79;52.03;100605.31;7393920;19;20006;-87
2022/12/05 08:06:23;;;;;;;0.93;0.30;;;;;;;20.70;52.50;100602.81;7393377;19;20030;-87
2022/12/05 08:08:50;;;;;;;2.10;0.30;;;;;;;20.65;52.46;100610.06;7393881;19;20029;-86
2022/12/05 08:11:19;;;;;;;0.20;0.20;;;;;;;20.53;52.49;100605.78;7395387;19;20015;-87
2022/12/05 08:13:46;;;;;;;0.20;0.20;;;;;;;20.15;52.85;100604.75;7394175;19;20480;-86
2022/12/05 08:16:15;;;;;;;0.22;0.22;;;;;;;20.25;53.02;100610.88;7397780;19;20019;-86
2022/12/05 08:18:42;;;;;;;0.10;0.10;;;;;;;19.63;53.51;100620.94;7394543;19;20432;-86
2022/12/05 08:21:11;;;;;;;0.82;0.20;;;;;;;19.79;53.69;100622.16;7394695;19;20014;-87
2022/12/05 08:23:38;;;;;;;0.30;0.30;;;;;;;19.61;53.53;100618.66;7394606;19;20018;-87
2022/12/05 08:26:11;;;;;;;0.88;0.30;;;;;;;20.11;52.47;100626.09;7392835;19;20019;-88
2022/12/05 08:28:38;;;;;;;0.25;0.25;;;;;;;20.03;52.61;100625.13;7395180;19;20364;-89
2022/12/05 08:31:10;;;;;;;0.10;0.10;;;;;;;19.97;52.39;100635.69;7394502;19;20015;-89
2022/12/05 08:33:37;;;;;;;0.32;0.32;;;;;;;20.28;52.06;100641.72;7394086;19;20015;-89
2022/12/05 08:36:05;;;;;;;0.25;0.20;;;;;;;20.59;51.68;100643.31;7393083;19;20018;-90
2022/12/05 08:38:33;;;;;;;1.45;0.30;;;;;;;21.01;51.22;100650.41;7396359;19;20039;-90
2022/12/05 08:41:01;;;;;;;3.40;0.95;;;;;;;20.27;51.57;100659.97;7396352;19;20044;-90
2022/12/05 08:43:28;;;;;;;0.10;0.10;;;;;;;19.07;53.43;100659.81;7394904;19;20010;-89
2022/12/05 08:45:55;;;;;;;1.20;1.08;;;;;;;19.09;53.94;100656.47;7396848;19;20041;-88
2022/12/05 08:48:22;;;;;;;0.85;0.65;;;;;;;19.40;54.18;100665.47;7393121;19;20010;-88
2022/12/05 08:50:48;;;;;;;13.40;1.10;;;;;;;19.55;54.11;100677.25;7394336;19;20006;-90
2022/12/05 08:53:15;;;;;;;0.30;0.20;;;;;;;19.53;53.88;100665.66;7396490;19;20671;-90
2022/12/05 08:55:41;;;;;;;0.82;0.40;;;;;;;19.47;54.23;100661.31;7394093;19;20023;-89
2022/12/05 08:58:08;;;;;;;0.85;0.77;;;;;;;19.47;54.57;100676.22;7395773;19;20043;-90
2022/12/05 09:00:34;;;;;;;4.57;0.93;;;;;;;19.12;55.22;100687.31;7397255;19;20406;-90
2022/12/05 09:03:00;;;;;;;1.73;1.38;;;;;;;19.73;54.86;100686.44;7405094;19;20476;-89
2022/12/05 09:05:26;;;;;;;1.45;0.70;;;;;;;19.80;55.21;100686.66;7400185;19;20010;-89
2022/12/05 09:07:52;;;;;;;0.45;0.30;;;;;;;20.54;54.59;100680.13;7398937;19;20007;-89
2022/12/05 09:10:18;;;;;;;0.80;0.38;;;;;;;21.22;53.08;100676.25;7400041;19;20089;-89
2022/12/05 09:12:45;;;;;;;0.52;0.35;;;;;;;21.04;53.00;100681.31;7404102;19;20026;-89
2022/12/05 09:15:11;;;;;;;0.90;0.63;;;;;;;20.99;53.03;100681.31;7400140;19;20077;-89
2022/12/05 09:17:38;;;;;;;0.20;0.20;;;;;;;20.54;53.88;100680.13;7399376;19;20081;-88
2022/12/05 09:20:06;;;;;;;1.55;0.85;;;;;;;20.07;54.96;100676.53;7401237;19;20339;-89
2022/12/05 09:22:32;;;;;;;0.35;0.35;;;;;;;20.22;54.73;100679.81;7405408;19;20010;-89
2022/12/05 09:24:59;;;;;;;0.20;0.20;;;;;;;19.79;55.61;100684.34;7399267;19;20011;-89
2022/12/05 09:27:29;;;;;;;3.33;0.85;;;;;;;20.20;55.18;100679.53;7398905;19;20035;-88
2022/12/05 09:29:55;;;;;;;0.40;0.20;;;;;;;20.57;54.76;100685.53;7401044;19;20025;-89
2022/12/05 09:32:21;;;;;;;0.35;0.35;;;;;;;20.71;54.48;100690.03;7405217;19;20082;-88
2022/12/05 09:34:47;;;;;;;1.67;1.05;;;;;;;20.78;53.98;100683.81;7401825;19;20019;-89
2022/12/05 09:37:13;;;;;;;2.17;0.80;;;;;;;21.14;53.63;100693.84;7398705;19;20017;-89
2022/12/05 09:39:42;;;;;;;3.67;0.82;;;;;;;21.03;53.63;100693.16;7400211;19;20014;-89
2022/12/05 09:42:34;;;;;;;0.10;0.10;;;;;;;21.31;52.86;100702.16;7402227;19;20022;-84
2022/12/05 09:45:08;;;;;;;0.77;0.77;;;;;;;21.26;52.64;100693.75;7404644;19;20406;-84
2022/12/05 09:47:44;;;;;;;0.20;0.20;;;;;;;21.38;52.33;100689.47;7395617;19;20044;-82
2022/12/05 09:50:25;;;;;;;3.10;0.60;;;;;;;21.59;52.43;100699.06;7400161;19;20010;-86
2022/12/05 09:53:05;;;;;;;0.40;0.40;;;;;;;21.42;52.19;100701.31;7402492;19;20018;-87
2022/12/05 09:55:47;;;;;;;1.27;0.30;;;;;;;20.91;53.11;100698.13;7399948;19;20093;-88
2022/12/05 09:58:27;;;;;;;;;;;;;;;20.90;53.04;100702.25;7395602;19;20026;-89
2022/12/05 10:01:02;;;;;;;0.30;0.30;;;;;;;20.82;53.54;100704.13;7397889;19;19914;-89
2022/12/05 10:03:42;;;;;;;0.32;0.17;;;;;;;20.56;53.88;100703.78;7392561;19;20039;-88
2022/12/05 10:06:23;;;;;;;5.45;1.10;;;;;;;20.64;54.13;100701.91;7389867;19;20039;-88
2022/12/05 10:09:11;;;;;;;0.60;0.60;;;;;;;20.39;54.23;100698.25;7385010;19;20399;-88
2022/12/05 10:11:40;;;;;;;0.80;0.73;;;;;;;20.43;54.60;100709.28;7390764;19;20022;-88
2022/12/05 10:14:22;;;;;;;1.00;0.93;;;;;;;20.55;54.54;100705.09;7387636;19;20048;-88
2022/12/05 10:16:55;;;;;;;0.50;0.35;;;;;;;20.92;54.07;100708.16;7389801;19;20488;-88
2022/12/05 10:19:41;;;;;;;6.93;1.30;;;;;;;20.65;54.30;100706.31;7392412;19;20034;-88
2022/12/05 10:22:15;;;;;;;4.88;0.45;;;;;;;20.75;54.54;100701.84;7395194;19;20022;-86
2022/12/05 10:24:46;;;;;;;0.75;0.43;;;;;;;20.63;54.71;100696.78;7392544;19;20022;-87
2022/12/05 10:27:35;;;;;;;2.05;0.60;;;;;;;21.04;54.43;100700.38;7390326;19;20011;-88
2022/12/05 10:30:22;;;;;;;2.75;0.63;;;;;;;20.78;54.91;100700.81;7392912;19;20089;-87
2022/12/05 10:32:58;;;;;;;0.80;0.55;;;;;;;20.84;55.15;100693.03;7394405;19;20082;-87
2022/12/05 10:35:33;;;;;;;0.70;0.68;;;;;;;20.92;54.97;100699.66;7390468;19;20025;-87
2022/12/05 10:38:12;;;;;;;1.02;0.77;;;;;;;21.23;54.72;100694.78;7393711;19;20021;-88
2022/12/05 10:40:50;;;;;;;3.50;0.85;;;;;;;21.94;53.45;100701.78;7390122;19;20043;-87
2022/12/05 10:43:24;;;;;;;2.38;0.50;;;;;;;21.93;53.05;100700.25;7391458;19;20043;-89
2022/12/05 10:45:51;;;;;;;1.20;0.30;;;;;;;22.10;52.88;100695.13;7390166;19;20485;-88
2022/12/05 10:48:19;;;;;;;0.47;0.32;;;;;;;22.27;52.54;100698.50;7391736;19;20014;-88
2022/12/05 10:50:48;;;;;;;0.77;0.68;;;;;;;21.87;52.67;100702.41;7394384;19;20010;-88
2022/12/05 10:53:19;;;;;;;0.73;0.43;;;;;;;21.98;52.51;100702.25;7396447;19;20025;-88
2022/12/05 10:55:47;;;;;;;0.77;0.65;;;;;;;21.81;52.50;100702.41;7392203;19;20025;-88
2022/12/05 10:58:16;;;;;;;0.30;0.15;;;;;;;22.13;52.74;100699.75;7395676;19;20026;-89
2022/12/05 11:00:47;;;;;;;0.10;0.10;;;;;;;21.83;53.19;100710.41;7396361;19;20010;-89
2022/12/05 11:03:34;;;;;;;0.10;0.05;;;;;;;21.72;52.78;100707.69;7396491;19;20345;-90
2022/12/05 11:06:31;;;;;;;1.83;0.55;;;;;;;21.16;52.83;100707.47;7396805;19;20022;-88
2022/12/05 11:09:22;;;;;;;0.70;0.52;;;;;;;20.91;53.86;100717.19;7387053;19;20034;-89
2022/12/05 11:12:08;;;;;;;;;;;;;;;21.40;53.32;100707.50;7389984;19;20014;-89
2022/12/05 11:14:35;;;;;;;0.10;0.10;;;;;;;21.37;53.55;100710.63;7386749;19;20013;-88
2022/12/05 11:17:04;;;;;;;13.05;0.85;;;;;;;21.12;54.25;100713.44;7387138;19;20014;-88
2022/12/05 11:19:37;;;;;;;1.75;0.32;;;;;;;21.16;53.65;100712.38;7391631;19;20133;-88
2022/12/05 11:22:06;;;;;;;0.60;0.60;;;;;;;21.01;54.08;100707.81;7394864;19;20529;-90
2022/12/05 11:24:37;;;;;;;2.85;0.52;;;;;;;20.83;54.80;100711.34;7391830;19;20010;-88
2022/12/05 11:27:15;;;;;;;0.68;0.47;;;;;;;21.08;54.16;100717.84;7391294;19;20519;-88
2022/12/05 11:29:43;;;;;;;1.27;0.68;;;;;;;21.63;53.43;100725.84;7388798;19;20093;-90
2022/12/05 11:32:22;;;;;;;4.57;0.85;;;;;;;21.61;52.61;100724.81;7391097;19;20014;-88
2022/12/05 11:34:58;;;;;;;5.47;0.57;;;;;;;21.47;52.98;100720.31;7390128;19;20082;-89
2022/12/05 11:37:30;;;;;;;3.58;0.90;;;;;;;21.51;53.01;100712.28;7385716;19;20025;-90
2022/12/05 11:39:58;;;;;;;0.50;0.47;;;;;;;21.48;52.84;100711.31;7388009;19;20015;-88
2022/12/05 11:42:57;;;;;;;0.38;0.32;;;;;;;21.16;52.99;100723.72;7392806;19;20026;-91
2022/12/05 11:45:35;;;;;;;4.95;0.80;;;;;;;20.99;53.03;100710.41;7389773;19;20019;-88
2022/12/05 11:48:19;;;;;;;12.05;1.10;;;;;;;21.11;53.37;100717.53;7387053;19;20019;-87
2022/12/05 11:51:01;;;;;;;0.40;0.30;;;;;;;21.05;53.08;100714.00;7388373;19;20015;-88